GQPA

Atar International Airport

Atar, Mauritania
METAR GQPA 181800Z 28008KT 5000 DU NSC 39/10 Q1012
Observed Flight Rules
Jul-18 @ 18:00 UTC (14 hours ago) Marginal Visual Flight Rules
Wind Visibility Clouds Conditions
280° at 8 knots 5,005 meters
  • Clear skies
  • Dust
Temperatures Readings
Current 39°C / 102°F
Dewpoint 10°C / 50°F
Humidity 17%
Altimeter 29.88" Hg
Pressure 1012 hPa
Elevation 224
METAR GQPA 181800Z 28008KT 5000 DU NSC 39/10 Q1012
Observed Flight Rules
Jul-18 @ 18:00 UTC
(14 hours ago)
MVFR
Wind Visibility
280° at 8 knots 5,005 meters
Clouds
  • Clear skies
Conditions
  • Dust
Temperature Dewpoint
39°C / 102°F 10°C / 50°F
Humidity Altimeter Pressure
17% 29.88" Hg 1012 hPa